sensor_id;sensor_type;location;lat;lon;timestamp;pressure;altitude;pressure_sealevel;temperature;humidity
60725;BME280;59881;36.722;-4.462;2023-02-15T00:01:09;101767.06;;;11.46;88.31
60725;BME280;59881;36.722;-4.462;2023-02-15T00:03:35;101106.22;;;7.35;87.70
60725;BME280;59881;36.722;-4.462;2023-02-15T00:06:02;101703.22;;;11.06;88.30
60725;BME280;59881;36.722;-4.462;2023-02-15T00:08:27;101714.34;;;10.95;88.20
60725;BME280;59881;36.722;-4.462;2023-02-15T00:10:53;101203.41;;;8.06;88.57
60725;BME280;59881;36.722;-4.462;2023-02-15T00:13:28;101338.94;;;8.64;88.79
60725;BME280;59881;36.722;-4.462;2023-02-15T00:15:53;101760.94;;;11.45;89.23
60725;BME280;59881;36.722;-4.462;2023-02-15T00:18:19;101750.47;;;11.44;89.03
60725;BME280;59881;36.722;-4.462;2023-02-15T00:20:44;101743.50;;;11.43;89.44
60725;BME280;59881;36.722;-4.462;2023-02-15T00:23:10;101663.22;;;10.97;89.50
60725;BME280;59881;36.722;-4.462;2023-02-15T00:25:35;101453.25;;;9.09;89.33
60725;BME280;59881;36.722;-4.462;2023-02-15T00:28:01;101741.63;;;11.45;89.90
60725;BME280;59881;36.722;-4.462;2023-02-15T00:30:26;101674.31;;;10.87;89.69
60725;BME280;59881;36.722;-4.462;2023-02-15T00:32:52;101729.44;;;11.42;89.84
60725;BME280;59881;36.722;-4.462;2023-02-15T00:35:17;101740.16;;;11.39;89.56
60725;BME280;59881;36.722;-4.462;2023-02-15T00:37:43;101618.94;;;10.71;89.32
60725;BME280;59881;36.722;-4.462;2023-02-15T00:40:09;101746.00;;;11.28;89.55
60725;BME280;59881;36.722;-4.462;2023-02-15T00:42:34;101542.41;;;10.22;89.68
60725;BME280;59881;36.722;-4.462;2023-02-15T00:45:00;101626.31;;;10.64;89.76
60725;BME280;59881;36.722;-4.462;2023-02-15T00:47:25;101736.78;;;11.19;89.47
60725;BME280;59881;36.722;-4.462;2023-02-15T00:49:51;101698.44;;;10.96;89.45
60725;BME280;59881;36.722;-4.462;2023-02-15T00:52:16;101069.19;;;7.05;89.44
60725;BME280;59881;36.722;-4.462;2023-02-15T00:54:42;101728.34;;;11.13;90.05
60725;BME280;59881;36.722;-4.462;2023-02-15T00:57:07;100943.91;;;6.18;89.53
60725;BME280;59881;36.722;-4.462;2023-02-15T00:59:33;101459.84;;;9.55;90.43
60725;BME280;59881;36.722;-4.462;2023-02-15T01:01:58;101743.31;;;11.12;90.88
60725;BME280;59881;36.722;-4.462;2023-02-15T01:04:24;101184.22;;;7.87;90.38
60725;BME280;59881;36.722;-4.462;2023-02-15T01:06:49;101716.41;;;11.06;90.42
60725;BME280;59881;36.722;-4.462;2023-02-15T01:09:15;101281.47;;;8.39;90.10
60725;BME280;59881;36.722;-4.462;2023-02-15T01:11:40;101651.09;;;10.60;90.76
60725;BME280;59881;36.722;-4.462;2023-02-15T01:14:06;101708.22;;;10.60;90.86
60725;BME280;59881;36.722;-4.462;2023-02-15T01:16:31;101712.66;;;10.94;90.76
60725;BME280;59881;36.722;-4.462;2023-02-15T01:18:57;101620.44;;;10.42;90.77
60725;BME280;59881;36.722;-4.462;2023-02-15T01:21:26;101717.97;;;10.92;91.38
60725;BME280;59881;36.722;-4.462;2023-02-15T01:23:52;101443.41;;;9.32;91.37
60725;BME280;59881;36.722;-4.462;2023-02-15T01:26:18;101502.69;;;9.74;91.93
60725;BME280;59881;36.722;-4.462;2023-02-15T01:28:44;101447.34;;;9.41;91.74
60725;BME280;59881;36.722;-4.462;2023-02-15T01:31:12;101291.78;;;8.44;91.46
60725;BME280;59881;36.722;-4.462;2023-02-15T01:33:38;101617.88;;;10.40;92.10
60725;BME280;59881;36.722;-4.462;2023-02-15T01:36:04;100942.75;;;6.05;91.62
60725;BME280;59881;36.722;-4.462;2023-02-15T01:38:29;101752.44;;;10.89;92.43
60725;BME280;59881;36.722;-4.462;2023-02-15T01:40:55;101692.63;;;10.90;92.47
60725;BME280;59881;36.722;-4.462;2023-02-15T01:43:51;101253.78;;;8.32;92.31
60725;BME280;59881;36.722;-4.462;2023-02-15T01:46:19;101623.22;;;10.56;92.56
60725;BME280;59881;36.722;-4.462;2023-02-15T01:48:48;101684.03;;;10.86;92.60
60725;BME280;59881;36.722;-4.462;2023-02-15T01:51:17;101617.88;;;10.40;92.56
60725;BME280;59881;36.722;-4.462;2023-02-15T01:54:04;101119.19;;;7.38;92.18
60725;BME280;59881;36.722;-4.462;2023-02-15T01:56:35;101653.13;;;10.55;92.28
60725;BME280;59881;36.722;-4.462;2023-02-15T01:59:06;101069.25;;;7.03;92.34
60725;BME280;59881;36.722;-4.462;2023-02-15T02:01:32;101245.13;;;8.13;92.16
60725;BME280;59881;36.722;-4.462;2023-02-15T02:06:30;101429.94;;;9.21;92.47
60725;BME280;59881;36.722;-4.462;2023-02-15T02:08:57;101461.81;;;9.49;92.63
60725;BME280;59881;36.722;-4.462;2023-02-15T02:11:23;101671.56;;;10.72;92.70
60725;BME280;59881;36.722;-4.462;2023-02-15T02:13:50;101666.22;;;10.74;92.87
60725;BME280;59881;36.722;-4.462;2023-02-15T02:22:20;101664.56;;;10.71;92.85
60725;BME280;59881;36.722;-4.462;2023-02-15T02:33:10;101633.44;;;10.45;92.87
60725;BME280;59881;36.722;-4.462;2023-02-15T02:38:42;101676.47;;;10.63;92.85
60725;BME280;59881;36.722;-4.462;2023-02-15T02:41:20;101419.38;;;8.86;92.58
60725;BME280;59881;36.722;-4.462;2023-02-15T02:49:04;101589.44;;;10.12;93.40
60725;BME280;59881;36.722;-4.462;2023-02-15T02:51:29;101095.69;;;7.18;93.03
60725;BME280;59881;36.722;-4.462;2023-02-15T02:53:56;101889.50;;;10.53;93.40
60725;BME280;59881;36.722;-4.462;2023-02-15T02:56:31;101577.19;;;10.11;93.44
60725;BME280;59881;36.722;-4.462;2023-02-15T02:59:04;101644.69;;;10.48;93.61
60725;BME280;59881;36.722;-4.462;2023-02-15T03:01:42;101346.53;;;8.70;93.13
60725;BME280;59881;36.722;-4.462;2023-02-15T03:04:13;101191.69;;;7.77;93.74
60725;BME280;59881;36.722;-4.462;2023-02-15T03:09:20;101631.16;;;10.39;94.04
60725;BME280;59881;36.722;-4.462;2023-02-15T03:11:46;101482.22;;;9.63;93.65
60725;BME280;59881;36.722;-4.462;2023-02-15T03:14:14;101647.47;;;10.63;93.11
60725;BME280;59881;36.722;-4.462;2023-02-15T03:16:43;101476.47;;;9.55;92.84
60725;BME280;59881;36.722;-4.462;2023-02-15T03:19:40;101634.22;;;10.47;92.41
60725;BME280;59881;36.722;-4.462;2023-02-15T03:22:15;101638.88;;;10.42;92.71
60725;BME280;59881;36.722;-4.462;2023-02-15T03:25:10;101626.38;;;10.28;92.60
60725;BME280;59881;36.722;-4.462;2023-02-15T03:27:42;101638.50;;;10.32;92.52
60725;BME280;59881;36.722;-4.462;2023-02-15T03:30:09;101643.09;;;10.27;92.29
60725;BME280;59881;36.722;-4.462;2023-02-15T03:32:37;101514.25;;;9.35;92.12
60725;BME280;59881;36.722;-4.462;2023-02-15T03:35:05;101546.47;;;9.58;92.46
60725;BME280;59881;36.722;-4.462;2023-02-15T03:40:29;101634.03;;;10.15;92.60
60725;BME280;59881;36.722;-4.462;2023-02-15T03:46:42;101627.22;;;10.11;92.74
60725;BME280;59881;36.722;-4.462;2023-02-15T03:49:22;101994.97;;;9.05;92.76
60725;BME280;59881;36.722;-4.462;2023-02-15T03:51:51;101042.78;;;6.51;92.85
60725;BME280;59881;36.722;-4.462;2023-02-15T03:54:28;101632.88;;;10.03;93.25
60725;BME280;59881;36.722;-4.462;2023-02-15T03:57:21;101464.66;;;9.10;93.43
60725;BME280;59881;36.722;-4.462;2023-02-15T04:05:30;101526.81;;;9.47;94.14
60725;BME280;59881;36.722;-4.462;2023-02-15T04:07:56;101624.09;;;10.03;94.22
60725;BME280;59881;36.722;-4.462;2023-02-15T04:10:22;101678.38;;;9.69;94.02
60725;BME280;59881;36.722;-4.462;2023-02-15T04:13:05;101552.38;;;9.63;94.30
60725;BME280;59881;36.722;-4.462;2023-02-15T04:15:31;101180.91;;;7.06;93.75
60725;BME280;59881;36.722;-4.462;2023-02-15T04:18:15;101269.22;;;7.83;94.04
60725;BME280;59881;36.722;-4.462;2023-02-15T04:20:44;101588.56;;;9.77;94.20
60725;BME280;59881;36.722;-4.462;2023-02-15T04:23:28;101570.69;;;9.83;94.37
60725;BME280;59881;36.722;-4.462;2023-02-15T04:26:12;101592.50;;;10.03;94.28
60725;BME280;59881;36.722;-4.462;2023-02-15T04:28:37;101530.25;;;9.67;93.93
60725;BME280;59881;36.722;-4.462;2023-02-15T04:31:03;101239.38;;;7.85;94.02
60725;BME280;59881;36.722;-4.462;2023-02-15T04:33:28;101601.28;;;10.03;93.93
60725;BME280;59881;36.722;-4.462;2023-02-15T04:35:54;101608.41;;;10.01;93.86
60725;BME280;59881;36.722;-4.462;2023-02-15T04:38:19;101485.63;;;9.29;93.50
60725;BME280;59881;36.722;-4.462;2023-02-15T04:40:49;101591.22;;;9.94;93.31
60725;BME280;59881;36.722;-4.462;2023-02-15T04:43:15;101594.69;;;9.94;93.31
60725;BME280;59881;36.722;-4.462;2023-02-15T04:45:41;101593.63;;;9.99;93.35
60725;BME280;59881;36.722;-4.462;2023-02-15T04:48:06;101398.13;;;8.90;93.32
60725;BME280;59881;36.722;-4.462;2023-02-15T04:50:32;100828.50;;;5.46;92.18
60725;BME280;59881;36.722;-4.462;2023-02-15T04:52:58;101581.91;;;10.04;92.85
60725;BME280;59881;36.722;-4.462;2023-02-15T04:55:23;101464.44;;;9.32;92.46
60725;BME280;59881;36.722;-4.462;2023-02-15T04:57:48;101502.00;;;9.53;92.37
60725;BME280;59881;36.722;-4.462;2023-02-15T05:00:14;101369.31;;;8.70;92.12
60725;BME280;59881;36.722;-4.462;2023-02-15T05:02:40;101520.34;;;9.55;91.91
60725;BME280;59881;36.722;-4.462;2023-02-15T05:05:05;101392.75;;;8.75;91.92
60725;BME280;59881;36.722;-4.462;2023-02-15T05:07:32;101571.28;;;9.35;91.59
60725;BME280;59881;36.722;-4.462;2023-02-15T05:09:57;101438.31;;;8.93;91.80
60725;BME280;59881;36.722;-4.462;2023-02-15T05:12:23;101593.50;;;9.83;91.78
60725;BME280;59881;36.722;-4.462;2023-02-15T05:14:48;101435.19;;;8.84;91.64
60725;BME280;59881;36.722;-4.462;2023-02-15T05:17:14;101591.19;;;9.77;91.62
60725;BME280;59881;36.722;-4.462;2023-02-15T05:19:39;101594.78;;;9.74;91.54
60725;BME280;59881;36.722;-4.462;2023-02-15T05:22:05;101414.34;;;8.62;91.39
60725;BME280;59881;36.722;-4.462;2023-02-15T05:24:30;101593.25;;;9.70;91.52
60725;BME280;59881;36.722;-4.462;2023-02-15T05:27:14;100900.09;;;5.21;91.47
60725;BME280;59881;36.722;-4.462;2023-02-15T05:29:58;101056.44;;;6.37;91.23
60725;BME280;59881;36.722;-4.462;2023-02-15T05:32:24;101036.00;;;6.27;91.55
60725;BME280;59881;36.722;-4.462;2023-02-15T05:34:49;101705.84;;;9.63;92.05
60725;BME280;59881;36.722;-4.462;2023-02-15T05:37:15;101603.34;;;9.60;92.08
60725;BME280;59881;36.722;-4.462;2023-02-15T05:39:40;101600.03;;;9.57;91.51
60725;BME280;59881;36.722;-4.462;2023-02-15T05:42:06;101601.88;;;9.55;92.13
60725;BME280;59881;36.722;-4.462;2023-02-15T05:44:32;101610.78;;;9.52;92.10
60725;BME280;59881;36.722;-4.462;2023-02-15T05:46:57;101609.84;;;9.53;92.53
60725;BME280;59881;36.722;-4.462;2023-02-15T05:49:23;101420.13;;;8.31;92.38
60725;BME280;59881;36.722;-4.462;2023-02-15T05:51:48;101602.78;;;9.53;92.98
60725;BME280;59881;36.722;-4.462;2023-02-15T05:54:14;101610.63;;;9.55;93.10
60725;BME280;59881;36.722;-4.462;2023-02-15T05:56:39;101531.44;;;9.06;93.04
60725;BME280;59881;36.722;-4.462;2023-02-15T05:59:05;101101.28;;;6.30;92.78
60725;BME280;59881;36.722;-4.462;2023-02-15T06:01:30;101613.53;;;9.49;93.45
60725;BME280;59881;36.722;-4.462;2023-02-15T06:03:56;101620.53;;;9.50;93.70
60725;BME280;59881;36.722;-4.462;2023-02-15T06:06:21;101357.50;;;7.84;93.88
60725;BME280;59881;36.722;-4.462;2023-02-15T06:08:47;101613.03;;;9.60;94.31
60725;BME280;59881;36.722;-4.462;2023-02-15T06:11:13;101449.59;;;8.57;93.94
60725;BME280;59881;36.722;-4.462;2023-02-15T06:13:38;101621.16;;;9.55;93.73
60725;BME280;59881;36.722;-4.462;2023-02-15T06:16:05;101612.97;;;9.61;94.55
60725;BME280;59881;36.722;-4.462;2023-02-15T06:18:31;101621.56;;;9.65;94.33
60725;BME280;59881;36.722;-4.462;2023-02-15T06:20:56;101484.59;;;8.76;94.05
60725;BME280;59881;36.722;-4.462;2023-02-15T06:23:22;101247.97;;;7.31;93.95
60725;BME280;59881;36.722;-4.462;2023-02-15T06:25:47;101437.06;;;8.44;94.03
60725;BME280;59881;36.722;-4.462;2023-02-15T06:28:13;101636.72;;;9.60;93.94
60725;BME280;59881;36.722;-4.462;2023-02-15T06:30:39;101631.50;;;9.58;93.85
60725;BME280;59881;36.722;-4.462;2023-02-15T06:33:04;101623.78;;;9.55;94.10
60725;BME280;59881;36.722;-4.462;2023-02-15T06:35:30;101561.03;;;9.09;93.81
60725;BME280;59881;36.722;-4.462;2023-02-15T06:37:55;101636.66;;;9.61;93.90
60725;BME280;59881;36.722;-4.462;2023-02-15T06:40:21;101230.03;;;6.60;93.56
60725;BME280;59881;36.722;-4.462;2023-02-15T06:42:47;101464.44;;;8.58;94.04
60725;BME280;59881;36.722;-4.462;2023-02-15T06:45:12;101354.38;;;7.14;93.70
60725;BME280;59881;36.722;-4.462;2023-02-15T06:47:38;101536.88;;;8.22;93.96
60725;BME280;59881;36.722;-4.462;2023-02-15T06:50:05;101641.47;;;9.70;94.01
60725;BME280;59881;36.722;-4.462;2023-02-15T06:52:31;101247.38;;;6.62;93.84
60725;BME280;59881;36.722;-4.462;2023-02-15T06:54:56;101186.44;;;7.00;93.82
60725;BME280;59881;36.722;-4.462;2023-02-15T06:57:22;101563.38;;;9.16;94.34
60725;BME280;59881;36.722;-4.462;2023-02-15T06:59:48;101655.13;;;9.79;93.59
60725;BME280;59881;36.722;-4.462;2023-02-15T07:02:13;101706.66;;;9.26;93.44
60725;BME280;59881;36.722;-4.462;2023-02-15T07:04:39;100900.88;;;5.23;92.80
60725;BME280;59881;36.722;-4.462;2023-02-15T07:07:08;101688.44;;;9.78;93.49
60725;BME280;59881;36.722;-4.462;2023-02-15T07:09:34;101444.72;;;8.49;93.31
60725;BME280;59881;36.722;-4.462;2023-02-15T07:12:00;101665.09;;;9.89;93.52
60725;BME280;59881;36.722;-4.462;2023-02-15T07:14:44;101778.34;;;10.07;93.43
60725;BME280;59881;36.722;-4.462;2023-02-15T07:17:09;101030.38;;;6.36;92.81
60725;BME280;59881;36.722;-4.462;2023-02-15T07:19:35;101814.81;;;10.35;93.00
60725;BME280;59881;36.722;-4.462;2023-02-15T07:22:00;101606.94;;;10.13;92.93
60725;BME280;59881;36.722;-4.462;2023-02-15T07:24:26;101677.91;;;10.68;92.37
60725;BME280;59881;36.722;-4.462;2023-02-15T07:26:51;101583.78;;;10.37;91.99
60725;BME280;59881;36.722;-4.462;2023-02-15T07:29:17;101574.69;;;10.60;91.60
60725;BME280;59881;36.722;-4.462;2023-02-15T07:31:43;101625.41;;;11.14;90.92
60725;BME280;59881;36.722;-4.462;2023-02-15T07:34:10;101664.09;;;11.63;89.92
60725;BME280;59881;36.722;-4.462;2023-02-15T07:36:36;101613.50;;;11.55;89.08
60725;BME280;59881;36.722;-4.462;2023-02-15T07:39:01;101541.84;;;11.31;87.36
60725;BME280;59881;36.722;-4.462;2023-02-15T07:41:27;101662.25;;;12.27;86.42
60725;BME280;59881;36.722;-4.462;2023-02-15T07:43:52;101664.03;;;12.57;84.94
60725;BME280;59881;36.722;-4.462;2023-02-15T07:46:18;101161.75;;;9.86;83.34
60725;BME280;59881;36.722;-4.462;2023-02-15T07:48:44;101638.19;;;13.05;81.78
60725;BME280;59881;36.722;-4.462;2023-02-15T07:51:11;101551.75;;;13.05;80.07
60725;BME280;59881;36.722;-4.462;2023-02-15T07:53:38;101636.47;;;13.89;77.73
60725;BME280;59881;36.722;-4.462;2023-02-15T07:56:06;101656.38;;;15.00;74.40
60725;BME280;59881;36.722;-4.462;2023-02-15T07:58:35;101656.63;;;15.46;71.83
60725;BME280;59881;36.722;-4.462;2023-02-15T08:01:18;101664.66;;;16.19;68.17
60725;BME280;59881;36.722;-4.462;2023-02-15T08:03:44;101233.41;;;13.95;65.35
60725;BME280;59881;36.722;-4.462;2023-02-15T08:06:10;101646.03;;;16.43;63.88
60725;BME280;59881;36.722;-4.462;2023-02-15T08:08:38;101636.63;;;15.90;62.82
60725;BME280;59881;36.722;-4.462;2023-02-15T08:19:10;101626.13;;;17.38;60.47
60725;BME280;59881;36.722;-4.462;2023-02-15T08:21:39;101579.88;;;17.83;57.57
60725;BME280;59881;36.722;-4.462;2023-02-15T08:24:06;101643.47;;;18.83;55.49
60725;BME280;59881;36.722;-4.462;2023-02-15T08:26:33;101608.34;;;18.78;53.99
60725;BME280;59881;36.722;-4.462;2023-02-15T08:29:00;101653.03;;;18.86;53.78
60725;BME280;59881;36.722;-4.462;2023-02-15T08:31:26;101696.94;;;18.18;53.90
60725;BME280;59881;36.722;-4.462;2023-02-15T08:33:54;101647.91;;;19.84;52.49
60725;BME280;59881;36.722;-4.462;2023-02-15T08:36:23;101649.75;;;21.27;49.79
60725;BME280;59881;36.722;-4.462;2023-02-15T08:38:49;101658.69;;;22.27;46.15
60725;BME280;59881;36.722;-4.462;2023-02-15T08:41:29;101621.44;;;23.02;44.21
60725;BME280;59881;36.722;-4.462;2023-02-15T08:43:58;101654.94;;;23.16;43.12
60725;BME280;59881;36.722;-4.462;2023-02-15T08:46:26;101514.00;;;23.35;41.56
60725;BME280;59881;36.722;-4.462;2023-02-15T08:48:53;101398.13;;;22.20;40.02
60725;BME280;59881;36.722;-4.462;2023-02-15T08:51:27;101623.88;;;22.17;42.01
60725;BME280;59881;36.722;-4.462;2023-02-15T08:53:55;101677.81;;;21.78;43.19
60725;BME280;59881;36.722;-4.462;2023-02-15T08:56:24;101583.41;;;20.26;45.05
60725;BME280;59881;36.722;-4.462;2023-02-15T08:58:52;101753.06;;;19.95;47.01
60725;BME280;59881;36.722;-4.462;2023-02-15T09:01:20;101301.50;;;16.82;48.81
60725;BME280;59881;36.722;-4.462;2023-02-15T09:03:48;101689.94;;;18.59;50.11
60725;BME280;59881;36.722;-4.462;2023-02-15T09:06:16;101405.06;;;16.40;51.25
60725;BME280;59881;36.722;-4.462;2023-02-15T09:08:42;101733.72;;;17.81;52.61
60725;BME280;59881;36.722;-4.462;2023-02-15T09:14:08;101675.38;;;17.55;54.22
60725;BME280;59881;36.722;-4.462;2023-02-15T09:16:35;101695.44;;;17.93;54.32
60725;BME280;59881;36.722;-4.462;2023-02-15T09:19:02;101695.38;;;18.16;54.33
60725;BME280;59881;36.722;-4.462;2023-02-15T09:21:30;101673.97;;;18.27;53.96
60725;BME280;59881;36.722;-4.462;2023-02-15T09:23:59;101698.09;;;18.58;53.30
60725;BME280;59881;36.722;-4.462;2023-02-15T09:26:25;101693.31;;;18.61;53.30
60725;BME280;59881;36.722;-4.462;2023-02-15T09:28:53;101695.03;;;18.63;53.36
60725;BME280;59881;36.722;-4.462;2023-02-15T09:31:23;101783.13;;;18.19;53.35
60725;BME280;59881;36.722;-4.462;2023-02-15T09:33:50;101699.22;;;18.44;54.00
60725;BME280;59881;36.722;-4.462;2023-02-15T09:36:30;101708.56;;;18.17;54.65
60725;BME280;59881;36.722;-4.462;2023-02-15T09:41:34;101704.44;;;17.58;55.97
60725;BME280;59881;36.722;-4.462;2023-02-15T09:53:01;101717.19;;;16.74;59.05
60725;BME280;59881;36.722;-4.462;2023-02-15T09:58:50;101406.31;;;14.22;59.98
60725;BME280;59881;36.722;-4.462;2023-02-15T10:04:38;101728.38;;;16.55;60.85
60725;BME280;59881;36.722;-4.462;2023-02-15T10:07:15;101735.78;;;16.63;60.81
60725;BME280;59881;36.722;-4.462;2023-02-15T10:26:20;101730.63;;;17.53;58.54
60725;BME280;59881;36.722;-4.462;2023-02-15T10:28:50;101734.13;;;17.65;57.88
60725;BME280;59881;36.722;-4.462;2023-02-15T10:34:18;101735.31;;;17.84;56.28
60725;BME280;59881;36.722;-4.462;2023-02-15T10:37:16;101737.47;;;18.01;55.91
60725;BME280;59881;36.722;-4.462;2023-02-15T10:45:23;101736.91;;;18.83;52.86
60725;BME280;59881;36.722;-4.462;2023-02-15T10:48:21;101522.78;;;17.65;51.24
60725;BME280;59881;36.722;-4.462;2023-02-15T10:50:51;101646.91;;;18.53;49.81
60725;BME280;59881;36.722;-4.462;2023-02-15T10:53:43;101730.97;;;19.00;49.01
60725;BME280;59881;36.722;-4.462;2023-02-15T11:01:47;101699.66;;;18.81;47.33
60725;BME280;59881;36.722;-4.462;2023-02-15T11:07:05;101738.22;;;18.35;48.68
60725;BME280;59881;36.722;-4.462;2023-02-15T11:09:40;101978.31;;;18.35;48.68
60725;BME280;59881;36.722;-4.462;2023-02-15T11:12:11;101727.50;;;18.47;48.45
60725;BME280;59881;36.722;-4.462;2023-02-15T11:14:52;101657.25;;;18.46;48.38
60725;BME280;59881;36.722;-4.462;2023-02-15T11:17:33;101717.81;;;19.09;47.96
60725;BME280;59881;36.722;-4.462;2023-02-15T11:20:23;101720.94;;;18.93;47.53
60725;BME280;59881;36.722;-4.462;2023-02-15T11:22:51;101301.69;;;16.03;47.76
60725;BME280;59881;36.722;-4.462;2023-02-15T11:25:23;101351.19;;;16.16;48.67
60725;BME280;59881;36.722;-4.462;2023-02-15T11:27:49;101727.34;;;18.27;48.99
60725;BME280;59881;36.722;-4.462;2023-02-15T11:30:24;101722.75;;;18.18;49.09
60725;BME280;59881;36.722;-4.462;2023-02-15T11:32:57;101731.78;;;18.38;48.88
60725;BME280;59881;36.722;-4.462;2023-02-15T11:35:37;101798.56;;;18.48;48.87
60725;BME280;59881;36.722;-4.462;2023-02-15T11:38:38;101718.06;;;18.43;48.56
60725;BME280;59881;36.722;-4.462;2023-02-15T11:41:14;101723.06;;;18.36;48.48
60725;BME280;59881;36.722;-4.462;2023-02-15T11:46:23;101654.00;;;18.22;48.53
60725;BME280;59881;36.722;-4.462;2023-02-15T11:48:49;101630.31;;;18.28;48.18
60725;BME280;59881;36.722;-4.462;2023-02-15T11:51:17;101693.25;;;18.84;47.63
60725;BME280;59881;36.722;-4.462;2023-02-15T11:53:45;101348.88;;;16.88;47.38
60725;BME280;59881;36.722;-4.462;2023-02-15T11:56:21;101702.97;;;19.26;47.01
60725;BME280;59881;36.722;-4.462;2023-02-15T11:58:55;101635.78;;;18.90;46.59
60725;BME280;59881;36.722;-4.462;2023-02-15T12:01:44;101705.41;;;19.29;47.02
60725;BME280;59881;36.722;-4.462;2023-02-15T12:04:34;101709.63;;;19.31;46.78
60725;BME280;59881;36.722;-4.462;2023-02-15T12:07:25;101700.81;;;19.40;47.01
60725;BME280;59881;36.722;-4.462;2023-02-15T12:09:59;101703.38;;;19.61;46.59
60725;BME280;59881;36.722;-4.462;2023-02-15T12:12:30;101381.03;;;16.96;46.58
60725;BME280;59881;36.722;-4.462;2023-02-15T12:14:59;101712.25;;;19.21;47.16
60725;BME280;59881;36.722;-4.462;2023-02-15T12:17:28;100932.22;;;14.31;47.32
60725;BME280;59881;36.722;-4.462;2023-02-15T12:20:01;101342.50;;;16.80;47.75
60725;BME280;59881;36.722;-4.462;2023-02-15T12:22:30;101813.88;;;18.99;47.85
60725;BME280;59881;36.722;-4.462;2023-02-15T12:25:16;101435.41;;;17.15;48.25
60725;BME280;59881;36.722;-4.462;2023-02-15T12:27:45;101705.88;;;18.82;48.51
60725;BME280;59881;36.722;-4.462;2023-02-15T12:30:36;101718.09;;;18.85;48.09
60725;BME280;59881;36.722;-4.462;2023-02-15T12:35:35;101700.78;;;18.79;48.42
60725;BME280;59881;36.722;-4.462;2023-02-15T12:38:09;101557.97;;;18.22;48.28
60725;BME280;59881;36.722;-4.462;2023-02-15T12:41:43;101684.59;;;19.01;48.25
60725;BME280;59881;36.722;-4.462;2023-02-15T12:43:42;101680.22;;;18.91;48.37
60725;BME280;59881;36.722;-4.462;2023-02-15T12:46:26;101532.56;;;17.96;48.71
60725;BME280;59881;36.722;-4.462;2023-02-15T12:49:20;101692.28;;;18.95;48.91
60725;BME280;59881;36.722;-4.462;2023-02-15T12:51:50;101681.34;;;18.98;48.26
60725;BME280;59881;36.722;-4.462;2023-02-15T12:54:33;101735.72;;;18.97;48.33
60725;BME280;59881;36.722;-4.462;2023-02-15T12:57:14;101285.03;;;16.01;48.56
60725;BME280;59881;36.722;-4.462;2023-02-15T13:02:47;101271.28;;;16.72;48.66
60725;BME280;59881;36.722;-4.462;2023-02-15T13:05:18;101605.44;;;18.70;49.06
60725;BME280;59881;36.722;-4.462;2023-02-15T13:07:49;101175.94;;;16.03;49.28
60725;BME280;59881;36.722;-4.462;2023-02-15T13:10:22;101637.78;;;18.76;49.58
60725;BME280;59881;36.722;-4.462;2023-02-15T13:12:49;101237.88;;;16.14;50.13
60725;BME280;59881;36.722;-4.462;2023-02-15T13:15:40;101790.84;;;18.33;50.73
60725;BME280;59881;36.722;-4.462;2023-02-15T13:18:16;101624.41;;;18.25;51.23
60725;BME280;59881;36.722;-4.462;2023-02-15T13:20:42;101656.75;;;18.73;50.92
60725;BME280;59881;36.722;-4.462;2023-02-15T13:23:32;101652.53;;;18.71;50.82
60725;BME280;59881;36.722;-4.462;2023-02-15T13:26:03;101549.06;;;17.90;50.94
60725;BME280;59881;36.722;-4.462;2023-02-15T13:28:42;101541.09;;;17.03;51.11
60725;BME280;59881;36.722;-4.462;2023-02-15T13:31:19;101230.91;;;15.68;51.85
60725;BME280;59881;36.722;-4.462;2023-02-15T13:37:05;101589.91;;;17.79;52.42
60725;BME280;59881;36.722;-4.462;2023-02-15T13:42:25;101637.50;;;17.95;52.93
60725;BME280;59881;36.722;-4.462;2023-02-15T13:47:37;101633.81;;;17.64;53.84
60725;BME280;59881;36.722;-4.462;2023-02-15T13:50:20;101631.97;;;17.76;53.82
60725;BME280;59881;36.722;-4.462;2023-02-15T13:53:05;101602.03;;;17.84;53.25
60725;BME280;59881;36.722;-4.462;2023-02-15T13:55:43;101629.78;;;17.81;53.76
60725;BME280;59881;36.722;-4.462;2023-02-15T14:12:50;101632.69;;;17.89;55.26
60725;BME280;59881;36.722;-4.462;2023-02-15T14:15:47;101522.56;;;17.02;55.78
60725;BME280;59881;36.722;-4.462;2023-02-15T14:18:25;101615.03;;;17.66;56.27
60725;BME280;59881;36.722;-4.462;2023-02-15T14:31:42;101739.09;;;17.58;57.15
60725;BME280;59881;36.722;-4.462;2023-02-15T14:34:24;101104.13;;;14.35;57.89
60725;BME280;59881;36.722;-4.462;2023-02-15T14:36:53;101509.09;;;16.02;58.09
60725;BME280;59881;36.722;-4.462;2023-02-15T14:42:49;101629.88;;;17.79;57.43
60725;BME280;59881;36.722;-4.462;2023-02-15T14:45:31;101636.09;;;17.69;57.18
60725;BME280;59881;36.722;-4.462;2023-02-15T14:48:21;101340.41;;;15.14;57.45
60725;BME280;59881;36.722;-4.462;2023-02-15T14:50:50;101449.56;;;15.69;57.61
60725;BME280;59881;36.722;-4.462;2023-02-15T14:53:35;101623.31;;;17.40;58.22
60725;BME280;59881;36.722;-4.462;2023-02-15T14:56:19;101621.41;;;17.31;58.71
60725;BME280;59881;36.722;-4.462;2023-02-15T15:01:33;101587.47;;;16.89;58.58
60725;BME280;59881;36.722;-4.462;2023-02-15T15:04:21;101622.75;;;17.36;58.69
60725;BME280;59881;36.722;-4.462;2023-02-15T15:07:20;101215.28;;;14.85;58.52
60725;BME280;59881;36.722;-4.462;2023-02-15T15:09:46;101460.63;;;15.27;59.40
60725;BME280;59881;36.722;-4.462;2023-02-15T15:14:43;101206.81;;;14.20;61.24
60725;BME280;59881;36.722;-4.462;2023-02-15T15:19:59;101743.13;;;16.60;61.52
60725;BME280;59881;36.722;-4.462;2023-02-15T15:22:30;101735.53;;;16.31;62.22
60725;BME280;59881;36.722;-4.462;2023-02-15T15:27:59;101130.97;;;12.83;63.10
60725;BME280;59881;36.722;-4.462;2023-02-15T15:35:27;101634.91;;;16.71;62.42
60725;BME280;59881;36.722;-4.462;2023-02-15T15:48:41;101161.44;;;14.25;58.06
60725;BME280;59881;36.722;-4.462;2023-02-15T15:51:20;101598.69;;;17.04;57.63
60725;BME280;59881;36.722;-4.462;2023-02-15T15:53:51;101438.69;;;16.07;57.09
60725;BME280;59881;36.722;-4.462;2023-02-15T15:56:34;101544.34;;;16.62;57.06